フランクフルト の空港の天気 - METARとTAF

フランクフルト国際空港 ( EDDF / FRA ) - ドイツ フランクフルト・アム・マイン
飛行場実況気象(Metar)
観測時間01/22 10:50 CET (01/22 09:50 UTC)
風向・風速東 4m/s
視程10km以上
天気現象
なし
気温-3℃
湿度68%
気圧1027hPa
METAREDDF 220950Z 08007KT 060V120 CAVOK M03/M08 Q1027 R88/0///95 NOSIG
過去の天気等 Google飛行場航空写真 Wunderground天気予報

過去48時間のMETAR

飛行場予報(TAF)
発表時間: 1/22 06:00 CET (1/22 05:00 UTC)
予報対象時間: 22日7時 CET ~ 23日13時 CET
風向・風速東北東 2m/s
視程10km以上
なし
TAF EDDF 220500Z 2206/2312 06004KT CAVOK